createdAt,value
2016-07-02T00:00:12.799Z,90.3
2016-07-02T00:01:12.768Z,90.01
2016-07-02T00:02:12.899Z,90.39
2016-07-02T00:03:12.887Z,90.01
2016-07-02T00:04:12.900Z,90.01
2016-07-02T00:05:12.999Z,90.39
2016-07-02T00:06:12.912Z,90.58
2016-07-02T00:07:12.911Z,90.01
2016-07-02T00:08:12.902Z,90.48
2016-07-02T00:09:12.795Z,90.3
2016-07-02T00:10:12.891Z,90.3
2016-07-02T00:11:12.917Z,90.3
2016-07-02T00:12:13.007Z,90.87
2016-07-02T00:13:13.386Z,90.1
2016-07-02T00:14:12.726Z,90.77
2016-07-02T00:15:12.873Z,90.87
2016-07-02T00:16:12.882Z,91.16
2016-07-02T00:17:12.956Z,91.97
2016-07-02T00:18:12.710Z,91.11
2016-07-02T00:19:12.901Z,91.39
2016-07-02T00:20:12.868Z,91.11
2016-07-02T00:21:12.735Z,91.2
2016-07-02T00:22:12.828Z,91.39
2016-07-02T00:23:12.639Z,91.49
2016-07-02T00:24:12.697Z,91.68
2016-07-02T00:25:12.844Z,92.07
2016-07-02T00:26:12.720Z,91.88
2016-07-02T00:27:12.677Z,91.78
2016-07-02T00:28:12.843Z,92.16
2016-07-02T00:29:12.947Z,91.97
2016-07-02T00:30:13.940Z,91.49
2016-07-02T00:31:12.826Z,92.45
2016-07-02T00:32:12.670Z,91.78
2016-07-02T00:33:12.694Z,91.97
2016-07-02T00:34:12.694Z,92.07
2016-07-02T00:35:12.811Z,91.78
2016-07-02T00:36:12.923Z,91.78
2016-07-02T00:37:12.656Z,91.49
2016-07-02T00:38:12.732Z,91.97
2016-07-02T00:39:12.632Z,91.97
2016-07-02T00:40:12.924Z,91.97
2016-07-02T00:41:12.786Z,92.54
2016-07-02T00:42:12.764Z,92.74
2016-07-02T00:43:12.666Z,92.83
2016-07-02T00:44:12.656Z,92.45
2016-07-02T00:45:12.784Z,92.83
2016-07-02T00:46:12.646Z,92.64
2016-07-02T00:47:13.528Z,92.83
2016-07-02T00:48:13.010Z,92.83
2016-07-02T00:49:12.588Z,93.21
2016-07-02T00:50:12.864Z,93.31
2016-07-02T00:51:12.885Z,93.6
2016-07-02T00:52:12.899Z,93.5
2016-07-02T00:53:12.678Z,93.31
2016-07-02T00:54:12.771Z,93.4
2016-07-02T00:55:12.598Z,93.21
2016-07-02T00:56:12.615Z,93.31
2016-07-02T00:57:12.525Z,93.02
2016-07-02T00:58:12.720Z,93.12
2016-07-02T00:59:12.523Z,93.69
2016-07-02T01:00:12.611Z,93.07
2016-07-02T01:01:12.560Z,93.74
2016-07-02T01:02:12.705Z,93.93
2016-07-02T01:03:12.536Z,93.74
2016-07-02T01:04:12.743Z,93.35
2016-07-02T01:05:12.799Z,93.45
2016-07-02T01:06:12.533Z,93.35
2016-07-02T01:07:12.727Z,93.64
2016-07-02T01:08:12.561Z,93.84
2016-07-02T01:09:12.500Z,93.84
2016-07-02T01:10:12.668Z,93.74
2016-07-02T01:11:12.477Z,93.74
2016-07-02T01:12:12.565Z,93.26
2016-07-02T01:13:12.691Z,93.26
2016-07-02T01:14:12.557Z,93.55
2016-07-02T01:15:12.603Z,93.26
2016-07-02T01:16:12.557Z,93.07
2016-07-02T01:17:12.590Z,92.49
2016-07-02T01:18:12.691Z,92.4
2016-07-02T01:19:13.571Z,92.49
2016-07-02T01:20:12.717Z,92.69
2016-07-02T01:21:12.697Z,92.69
2016-07-02T01:22:12.669Z,92.59
2016-07-02T01:23:12.676Z,92.49
2016-07-02T01:24:12.682Z,92.88
2016-07-02T01:25:12.568Z,92.97
2016-07-02T01:26:13.962Z,92.69
2016-07-02T01:27:12.741Z,92.59
2016-07-02T01:28:12.509Z,91.83
2016-07-02T01:29:12.482Z,92.4
2016-07-02T01:30:12.719Z,91.73
2016-07-02T01:31:12.629Z,91.53
2016-07-02T01:32:12.641Z,91.83
2016-07-02T01:33:12.614Z,91.63
2016-07-02T01:34:12.470Z,91.35
2016-07-02T01:35:12.399Z,91.16
2016-07-02T01:36:12.484Z,91.25
2016-07-02T01:37:12.483Z,91.16
2016-07-02T01:38:12.456Z,91.35
2016-07-02T01:39:12.739Z,91.35
2016-07-02T01:40:12.547Z,91.73
2016-07-02T01:41:12.700Z,91.44
2016-07-02T01:42:12.689Z,91.83
2016-07-02T01:43:12.589Z,91.44
2016-07-02T01:44:12.442Z,91.58
2016-07-02T01:45:12.376Z,91.49
2016-07-02T01:46:12.498Z,91.49
2016-07-02T01:47:12.454Z,90.91
2016-07-02T01:48:12.553Z,91.58
2016-07-02T01:49:12.451Z,91.3
2016-07-02T01:50:12.395Z,91.3
2016-07-02T01:51:12.573Z,90.82
2016-07-02T01:52:12.648Z,90.82
2016-07-02T01:53:12.441Z,90.34
2016-07-02T01:54:12.609Z,90.48
2016-07-02T01:55:12.399Z,90.48
2016-07-02T01:56:12.632Z,90
2016-07-02T01:57:12.426Z,89.23
2016-07-02T01:58:12.425Z,89.43
2016-07-02T01:59:13.249Z,89.33
2016-07-02T02:00:12.364Z,89.14
2016-07-02T02:01:12.425Z,89.62
2016-07-02T02:02:12.531Z,89.43
2016-07-02T02:03:12.529Z,89.43
2016-07-02T02:04:12.528Z,88.95
2016-07-02T02:05:12.354Z,89.43
2016-07-02T02:06:12.886Z,89.43
2016-07-02T02:07:12.628Z,88.76
2016-07-02T02:08:12.533Z,88.85
2016-07-02T02:09:13.406Z,88.76
2016-07-02T02:10:12.321Z,89.14
2016-07-02T02:11:13.000Z,89.04
2016-07-02T02:12:12.501Z,88.76
2016-07-02T02:13:12.786Z,88.7
2016-07-02T02:14:12.470Z,88.61
2016-07-02T02:15:12.288Z,88.9
2016-07-02T02:16:12.378Z,88.42
2016-07-02T02:17:12.380Z,88.13
2016-07-02T02:18:12.341Z,88.13
2016-07-02T02:19:12.460Z,88.23
2016-07-02T02:20:12.584Z,87.94
2016-07-02T02:21:12.697Z,88.03
2016-07-02T02:22:12.691Z,87.17
2016-07-02T02:23:13.266Z,87.27
2016-07-02T02:24:12.404Z,87.41
2016-07-02T02:25:12.678Z,86.12
2016-07-02T02:26:12.684Z,86.07
2016-07-02T02:27:12.672Z,86.07
2016-07-02T02:28:12.570Z,85.58
2016-07-02T02:29:12.556Z,85.68
2016-07-02T02:30:12.666Z,85.21
2016-07-02T02:31:12.673Z,85.01
2016-07-02T02:32:12.675Z,85.39
2016-07-02T02:33:12.679Z,85.3
2016-07-02T02:34:12.531Z,85.01
2016-07-02T02:35:12.714Z,85.21
2016-07-02T02:36:12.512Z,84.72
2016-07-02T02:37:12.485Z,84.72
2016-07-02T02:38:12.525Z,84.34
2016-07-02T02:39:12.613Z,84.05
2016-07-02T02:40:12.554Z,84.05
2016-07-02T02:41:12.642Z,83.95
2016-07-02T02:42:12.275Z,83.95
2016-07-02T02:43:12.591Z,83.76
2016-07-02T02:44:12.257Z,84.09
2016-07-02T02:45:12.441Z,83.38
2016-07-02T02:46:13.177Z,83.48
2016-07-02T02:47:12.309Z,83.81
2016-07-02T02:48:12.251Z,84.09
2016-07-02T02:49:12.516Z,84
2016-07-02T02:50:12.370Z,83.91
2016-07-02T02:51:12.478Z,84.05
2016-07-02T02:52:12.407Z,83.95
2016-07-02T02:53:12.343Z,83.95
2016-07-02T02:54:12.202Z,84.15
2016-07-02T02:55:12.607Z,83.95
2016-07-02T02:56:12.296Z,84.05
2016-07-02T02:57:12.440Z,84.15
2016-07-02T02:58:12.603Z,84.15
2016-07-02T02:59:12.576Z,84.05
2016-07-02T03:00:12.236Z,84.15
2016-07-02T03:01:12.476Z,84.15
2016-07-02T03:02:12.213Z,83.95
2016-07-02T03:03:12.179Z,83.95
2016-07-02T03:04:12.181Z,83.76
2016-07-02T03:05:12.433Z,83.95
2016-07-02T03:06:12.422Z,83.95
2016-07-02T03:07:12.451Z,84.05
2016-07-02T03:08:12.225Z,84.05
2016-07-02T03:09:12.424Z,84.82
2016-07-02T03:10:12.207Z,84.44
2016-07-02T03:11:12.550Z,84.63
2016-07-02T03:12:13.027Z,84.44
2016-07-02T03:13:12.398Z,84.72
2016-07-02T03:14:12.367Z,85.39
2016-07-02T03:15:12.383Z,85.39
2016-07-02T03:16:12.449Z,85.21
2016-07-02T03:17:12.360Z,85.11
2016-07-02T03:18:12.165Z,85.49
2016-07-02T03:19:12.379Z,85.74
2016-07-02T03:20:12.198Z,85.64
2016-07-02T03:21:12.411Z,85.64
2016-07-02T03:22:12.338Z,85.78
2016-07-02T03:23:12.385Z,85.54
2016-07-02T03:24:12.456Z,85.58
2016-07-02T03:25:12.323Z,86.07
2016-07-02T03:26:12.194Z,86.21
2016-07-02T03:27:12.184Z,86.07
2016-07-02T03:28:12.179Z,86.21
2016-07-02T03:29:12.430Z,86.31
2016-07-02T03:30:12.341Z,86.31
2016-07-02T03:31:12.332Z,86.41
2016-07-02T03:32:12.429Z,86.16
2016-07-02T03:33:12.419Z,86.16
2016-07-02T03:34:12.153Z,86.54
2016-07-02T03:35:12.203Z,86.45
2016-07-02T03:36:12.524Z,86.45
2016-07-02T03:37:13.137Z,86.45
2016-07-02T03:38:12.146Z,86.54
2016-07-02T03:39:12.138Z,85.97
2016-07-02T03:40:12.328Z,86.45
2016-07-02T03:41:12.171Z,86.07
2016-07-02T03:42:12.185Z,86.07
2016-07-02T03:43:12.097Z,86.25
2016-07-02T03:44:12.534Z,86.64
2016-07-02T03:45:12.338Z,86.54
2016-07-02T03:46:12.305Z,86.16
2016-07-02T03:47:12.194Z,86.54
2016-07-02T03:48:12.169Z,86.35
2016-07-02T03:49:12.147Z,85.97
2016-07-02T03:50:12.456Z,86.54
2016-07-02T03:51:12.526Z,86.35
2016-07-02T03:52:12.112Z,86.54
2016-07-02T03:53:12.204Z,86.45
2016-07-02T03:54:12.416Z,86.45
2016-07-02T03:55:12.389Z,86.45
2016-07-02T03:56:12.430Z,86.07
2016-07-02T03:57:12.261Z,86.07
2016-07-02T03:58:12.742Z,86.25
2016-07-02T03:59:12.126Z,86.16
2016-07-02T04:00:12.124Z,86.16
2016-07-02T04:01:12.448Z,86.16
2016-07-02T04:02:12.113Z,86.07
2016-07-02T04:03:12.489Z,86.16
2016-07-02T04:04:12.419Z,85.88
2016-07-02T04:05:12.114Z,86.07
2016-07-02T04:06:12.113Z,85.88
2016-07-02T04:07:12.132Z,85.92
2016-07-02T04:08:12.135Z,85.82
2016-07-02T04:09:12.130Z,85.63
2016-07-02T04:10:12.963Z,85.82
2016-07-02T04:11:12.110Z,85.44
2016-07-02T04:12:12.043Z,85.72
2016-07-02T04:13:12.098Z,85.82
2016-07-02T04:14:12.123Z,86.01
2016-07-02T04:15:12.411Z,85.82
2016-07-02T04:16:12.345Z,85.25
2016-07-02T04:17:12.107Z,85.25
2016-07-02T04:18:12.360Z,85.44
2016-07-02T04:19:12.393Z,85.25
2016-07-02T04:20:12.137Z,85.05
2016-07-02T04:21:12.415Z,85.25
2016-07-02T04:22:12.467Z,84.86
2016-07-02T04:23:12.078Z,84.95
2016-07-02T04:24:12.094Z,84.86
2016-07-02T04:25:12.079Z,84.95
2016-07-02T04:26:12.226Z,85.34
2016-07-02T04:27:12.430Z,85.34
2016-07-02T04:28:12.126Z,84.95
2016-07-02T04:29:12.042Z,85.15
2016-07-02T04:30:12.197Z,85.34
2016-07-02T04:31:12.186Z,85.05
2016-07-02T04:32:12.224Z,84.86
2016-07-02T04:33:12.030Z,85.15
2016-07-02T04:34:12.222Z,84.95
2016-07-02T04:35:11.992Z,85.25
2016-07-02T04:36:12.075Z,84.95
2016-07-02T04:37:12.110Z,85.25
2016-07-02T04:38:12.077Z,85.25
2016-07-02T04:39:12.186Z,85.25
2016-07-02T04:40:12.117Z,85.34
2016-07-02T04:41:12.322Z,85.25
2016-07-02T04:42:12.227Z,85.53
2016-07-02T04:43:12.066Z,85.25
2016-07-02T04:44:12.071Z,85.15
2016-07-02T04:45:12.004Z,85.15
2016-07-02T04:46:12.214Z,84.95
2016-07-02T04:47:12.210Z,85.15
2016-07-02T04:48:12.042Z,85.05
2016-07-02T04:49:11.974Z,84.81
2016-07-02T04:50:12.167Z,85.38
2016-07-02T04:51:12.411Z,84.86
2016-07-02T04:52:12.092Z,85.19
2016-07-02T04:53:12.123Z,85
2016-07-02T04:54:12.211Z,85.28
2016-07-02T04:55:12.180Z,85.19
2016-07-02T04:56:12.030Z,85.1
2016-07-02T04:57:12.168Z,85.28
2016-07-02T04:58:11.959Z,85.19
2016-07-02T04:59:12.151Z,84.91
2016-07-02T05:00:12.160Z,84.91
2016-07-02T05:01:11.956Z,84.52
2016-07-02T05:02:12.651Z,84.61
2016-07-02T05:03:12.045Z,85.1
2016-07-02T05:04:12.127Z,85.33
2016-07-02T05:05:12.153Z,84.81
2016-07-02T05:06:12.052Z,84.47
2016-07-02T05:07:12.164Z,84.56
2016-07-02T05:08:12.140Z,84.95
2016-07-02T05:09:11.942Z,85.04
2016-07-02T05:10:12.030Z,84.75
2016-07-02T05:11:12.022Z,85.14
2016-07-02T05:12:12.024Z,84.47
2016-07-02T05:13:12.360Z,84.85
2016-07-02T05:14:12.064Z,84.56
2016-07-02T05:15:11.967Z,84.85
2016-07-02T05:16:12.387Z,84.56
2016-07-02T05:17:11.976Z,84.66
2016-07-02T05:18:12.022Z,85.24
2016-07-02T05:19:11.934Z,85.14
2016-07-02T05:20:12.138Z,84.85
2016-07-02T05:21:11.928Z,85.04
2016-07-02T05:22:11.990Z,85.24
2016-07-02T05:23:12.143Z,85.18
2016-07-02T05:24:12.185Z,84.6
2016-07-02T05:25:12.146Z,84.85
2016-07-02T05:26:12.144Z,85.47
2016-07-02T05:27:12.166Z,84.6
2016-07-02T05:28:12.407Z,84.31
2016-07-02T05:29:12.386Z,83.26
2016-07-02T05:30:12.138Z,82.78
2016-07-02T05:31:12.138Z,82.87
2016-07-02T05:32:12.701Z,83.45
2016-07-02T05:33:12.171Z,82.82
2016-07-02T05:34:12.155Z,82.82
2016-07-02T05:35:12.750Z,81.09
2016-07-02T05:36:12.131Z,79.36
2016-07-02T05:37:12.103Z,80.22
2016-07-02T05:38:11.978Z,80.32
2016-07-02T05:39:12.119Z,80.27
2016-07-02T05:40:12.031Z,79.4
2016-07-02T05:41:12.365Z,79.6
2016-07-02T05:42:12.129Z,79.4
2016-07-02T05:43:12.106Z,78.25
2016-07-02T05:44:12.000Z,78.15
2016-07-02T05:45:11.985Z,76.36
2016-07-02T05:46:11.965Z,77.51
2016-07-02T05:47:11.968Z,76.36
2016-07-02T05:48:11.994Z,74.73
2016-07-02T05:49:11.993Z,72.03
2016-07-02T05:50:11.988Z,73.19
2016-07-02T05:51:12.152Z,73.96
2016-07-02T05:52:12.153Z,74.76
2016-07-02T05:53:13.570Z,74.86
2016-07-02T05:54:12.211Z,73.03
2016-07-02T05:55:12.359Z,72.45
2016-07-02T05:56:12.202Z,73.13
2016-07-02T05:57:12.146Z,73.03
2016-07-02T05:58:12.220Z,71.69
2016-07-02T05:59:12.118Z,72.2
2016-07-02T06:00:12.204Z,71.43
2016-07-02T06:01:12.136Z,70.18
2016-07-02T06:02:11.998Z,70.37
2016-07-02T06:03:11.983Z,71.24
2016-07-02T06:04:11.994Z,68.84
2016-07-02T06:05:12.109Z,69.31
2016-07-02T06:06:12.123Z,70.21
2016-07-02T06:07:12.372Z,69.93
2016-07-02T06:08:12.212Z,70.7
2016-07-02T06:09:12.172Z,70.12
2016-07-02T06:10:11.991Z,68.77
2016-07-02T06:11:12.002Z,68.48
2016-07-02T06:12:12.106Z,68.29
2016-07-02T06:13:12.114Z,68.32
2016-07-02T06:14:12.118Z,66.01
2016-07-02T06:15:12.152Z,65.72
2016-07-02T06:16:12.147Z,65.81
2016-07-02T06:17:12.139Z,67.88
2016-07-02T06:18:12.136Z,67.88
2016-07-02T06:19:12.129Z,65.08
2016-07-02T06:20:12.134Z,66.33
2016-07-02T06:21:12.134Z,65.85
2016-07-02T06:22:12.083Z,65.95
2016-07-02T06:23:12.008Z,66.46
2016-07-02T06:24:12.016Z,66.91
2016-07-02T06:25:12.012Z,67.52
2016-07-02T06:26:12.151Z,66.75
2016-07-02T06:27:12.011Z,65.4
2016-07-02T06:28:12.122Z,66.24
2016-07-02T06:29:12.044Z,66.52
2016-07-02T06:30:12.043Z,66.94
2016-07-02T06:31:12.019Z,66.14
2016-07-02T06:32:11.993Z,65.85
2016-07-02T06:33:12.132Z,66.94
2016-07-02T06:34:12.021Z,66.04
2016-07-02T06:35:11.946Z,66.82
2016-07-02T06:36:12.037Z,66.52
2016-07-02T06:37:12.224Z,66.14
2016-07-02T06:38:12.012Z,65.56
2016-07-02T06:39:11.958Z,66.91
2016-07-02T06:40:11.978Z,65.66
2016-07-02T06:41:12.115Z,66.01
2016-07-02T06:42:11.977Z,68.23
2016-07-02T06:43:12.152Z,67.07
2016-07-02T06:44:12.081Z,66.78
2016-07-02T06:45:12.040Z,66.78
2016-07-02T06:46:12.378Z,67.46
2016-07-02T06:47:12.187Z,67.26
2016-07-02T06:48:11.989Z,66.62
2016-07-02T06:49:12.278Z,65.37
2016-07-02T06:50:11.963Z,65.95
2016-07-02T06:51:11.968Z,66.82
2016-07-02T06:52:11.958Z,66.82
2016-07-02T06:53:11.958Z,67.3
2016-07-02T06:54:11.962Z,67
2016-07-02T06:55:12.394Z,66.82
2016-07-02T06:56:12.001Z,66.52
2016-07-02T06:57:12.031Z,67.3
2016-07-02T06:58:11.966Z,67
2016-07-02T06:59:12.060Z,67.2
2016-07-02T07:00:12.028Z,66.56
2016-07-02T07:01:11.972Z,65.05
2016-07-02T07:02:12.106Z,64.59
2016-07-02T07:03:11.990Z,61.92
2016-07-02T07:04:12.175Z,63.11
2016-07-02T07:05:12.199Z,58.6
2016-07-02T07:06:12.226Z,57.28
2016-07-02T07:07:12.032Z,56.34
2016-07-02T07:08:12.093Z,54.69
2016-07-02T07:09:12.076Z,54.71
2016-07-02T07:10:12.223Z,54.81
2016-07-02T07:11:12.037Z,54.52
2016-07-02T07:12:12.402Z,53.75
2016-07-02T07:13:12.086Z,53.94
2016-07-02T07:14:12.007Z,53.58
2016-07-02T07:15:12.098Z,53.09
2016-07-02T07:16:12.009Z,50.12
2016-07-02T07:17:12.183Z,49.66
2016-07-02T07:18:12.101Z,49.68
2016-07-02T07:19:12.140Z,50.65
2016-07-02T07:20:12.129Z,47.57
2016-07-02T07:21:12.122Z,45.75
2016-07-02T07:22:12.131Z,48
2016-07-02T07:23:12.380Z,46.45
2016-07-02T07:24:12.146Z,46.28
2016-07-02T07:25:12.430Z,45.23
2016-07-02T07:26:12.488Z,44.62
2016-07-02T07:27:12.429Z,46.45
2016-07-02T07:28:12.154Z,48.1
2016-07-02T07:29:12.158Z,47.4
2016-07-02T07:30:12.968Z,47.86
2016-07-02T07:31:12.229Z,49
2016-07-02T07:32:12.527Z,47.91
2016-07-02T07:33:12.295Z,50.14
2016-07-02T07:34:12.531Z,50.07
2016-07-02T07:35:12.320Z,51.09
2016-07-02T07:36:12.201Z,49
2016-07-02T07:37:12.322Z,45.28
2016-07-02T07:38:12.350Z,40.83
2016-07-02T07:39:12.393Z,38.06
2016-07-02T07:40:12.450Z,39.23
2016-07-02T07:41:12.410Z,40.56
2016-07-02T07:42:12.353Z,41.3
2016-07-02T07:43:12.431Z,43.5
2016-07-02T07:44:12.385Z,43.82
2016-07-02T07:45:12.410Z,44.95
2016-07-02T07:46:12.375Z,46.86
2016-07-02T07:47:12.476Z,48.37
2016-07-02T07:48:12.401Z,50.16
2016-07-02T07:49:12.437Z,50.24
2016-07-02T07:50:12.298Z,51.98
2016-07-02T07:51:12.442Z,52.8
2016-07-02T07:52:12.452Z,53.77
2016-07-02T07:53:12.208Z,55.87
2016-07-02T07:54:12.470Z,57.29
2016-07-02T07:55:12.481Z,59.02
2016-07-02T07:56:12.247Z,58.42
2016-07-02T07:57:12.299Z,60.22
2016-07-02T07:58:12.309Z,60.99
2016-07-02T07:59:12.316Z,60.89
2016-07-02T08:00:12.329Z,61.54
2016-07-02T08:01:12.651Z,62.99
2016-07-02T08:02:12.551Z,62.48
2016-07-02T08:03:12.556Z,62.76
2016-07-02T08:04:12.550Z,64.5
2016-07-02T08:05:12.342Z,64.5
2016-07-02T08:06:12.668Z,63.98
2016-07-02T08:07:12.608Z,65.24
2016-07-02T08:08:12.270Z,65.33
2016-07-02T08:09:12.348Z,65.63
2016-07-02T08:10:12.361Z,67.36
2016-07-02T08:11:12.359Z,66.78
2016-07-02T08:12:12.359Z,66.39
2016-07-02T08:13:12.533Z,65.3
2016-07-02T08:14:12.718Z,67.42
2016-07-02T08:15:12.695Z,67.71
2016-07-02T08:16:12.549Z,66.94
2016-07-02T08:17:12.675Z,68.48
2016-07-02T08:18:12.340Z,69.93
2016-07-02T08:19:12.375Z,71.47
2016-07-02T08:20:12.490Z,71.08
2016-07-02T08:21:12.680Z,70.89
2016-07-02T08:22:12.543Z,71.76
2016-07-02T08:23:12.505Z,70.6
2016-07-02T08:24:12.500Z,72.72
2016-07-02T08:25:12.619Z,72.05
2016-07-02T08:26:12.436Z,71.02
2016-07-02T08:27:12.423Z,68.99
2016-07-02T08:28:12.311Z,70.35
2016-07-02T08:29:12.510Z,70.35
2016-07-02T08:30:12.982Z,70.86
2016-07-02T08:31:12.515Z,70.28
2016-07-02T08:32:12.435Z,69.19
2016-07-02T08:33:12.519Z,69.51
2016-07-02T08:34:12.541Z,69.61
2016-07-02T08:35:12.534Z,70.64
2016-07-02T08:36:12.403Z,70.54
2016-07-02T08:37:12.311Z,71.7
2016-07-02T08:38:12.552Z,71.22
2016-07-02T08:39:12.535Z,70.79
2016-07-02T08:40:12.602Z,72.43
2016-07-02T08:41:12.673Z,72.53
2016-07-02T08:42:12.649Z,73.24
2016-07-02T08:43:12.333Z,72.56
2016-07-02T08:44:12.415Z,72.66
2016-07-02T08:45:12.414Z,71.41
2016-07-02T08:46:12.409Z,71.64
2016-07-02T08:47:12.335Z,70.86
2016-07-02T08:48:12.421Z,70.92
2016-07-02T08:49:12.369Z,71.15
2016-07-02T08:50:12.559Z,70.92
2016-07-02T08:51:12.578Z,70.35
2016-07-02T08:52:12.571Z,70.96
2016-07-02T08:53:12.372Z,71.02
2016-07-02T08:54:12.503Z,71.79
2016-07-02T08:55:12.362Z,72.6
2016-07-02T08:56:12.436Z,71.5
2016-07-02T08:57:12.411Z,71.79
2016-07-02T08:58:12.560Z,72.27
2016-07-02T08:59:12.380Z,71.7
2016-07-02T09:00:12.631Z,70.73
2016-07-02T09:01:12.354Z,71.18
2016-07-02T09:02:13.310Z,73.58
2016-07-02T09:03:12.553Z,73.88
2016-07-02T09:04:12.462Z,74.93
2016-07-02T09:05:12.384Z,75.96
2016-07-02T09:06:12.563Z,76.44
2016-07-02T09:07:12.578Z,77.11
2016-07-02T09:08:12.571Z,75.67
2016-07-02T09:09:12.395Z,74.22
2016-07-02T09:10:12.662Z,76.15
2016-07-02T09:11:12.574Z,77.17
2016-07-02T09:12:12.397Z,77.17
2016-07-02T09:13:12.583Z,77.17
2016-07-02T09:14:12.523Z,78.33
2016-07-02T09:15:12.681Z,78.23
2016-07-02T09:16:12.426Z,79.28
2016-07-02T09:17:12.582Z,78.86
2016-07-02T09:18:12.580Z,79.44
2016-07-02T09:19:12.436Z,79.25
2016-07-02T09:20:12.562Z,79.15
2016-07-02T09:21:12.403Z,78.77
2016-07-02T09:22:12.468Z,78.77
2016-07-02T09:23:12.374Z,79.53
2016-07-02T09:24:12.467Z,80.6
2016-07-02T09:25:12.379Z,79.35
2016-07-02T09:26:12.599Z,79.63
2016-07-02T09:27:12.624Z,78.77
2016-07-02T09:28:12.605Z,79.19
2016-07-02T09:29:12.408Z,79.19
2016-07-02T09:30:12.600Z,78.33
2016-07-02T09:31:12.377Z,78.52
2016-07-02T09:32:12.494Z,78.03
2016-07-02T09:33:12.406Z,76.11
2016-07-02T09:34:12.485Z,76.31
2016-07-02T09:35:12.478Z,75.24
2016-07-02T09:36:12.480Z,76.11
2016-07-02T09:37:12.473Z,76.21
2016-07-02T09:38:12.486Z,76.69
2016-07-02T09:39:12.476Z,76.5
2016-07-02T09:40:12.474Z,77.08
2016-07-02T09:41:12.489Z,76.01
2016-07-02T09:42:12.481Z,75.82
2016-07-02T09:43:12.484Z,77.08
2016-07-02T09:44:12.525Z,76.84
2016-07-02T09:45:12.711Z,76.46
2016-07-02T09:46:12.608Z,76.21
2016-07-02T09:47:12.508Z,76.78
2016-07-02T09:48:12.431Z,76.4
2016-07-02T09:49:12.509Z,76.01
2016-07-02T09:50:12.603Z,76.06
2016-07-02T09:51:12.639Z,75.86
2016-07-02T09:52:12.612Z,75.86
2016-07-02T09:53:12.521Z,74.93
2016-07-02T09:54:12.510Z,73.49
2016-07-02T09:55:12.512Z,73.2
2016-07-02T09:56:12.512Z,72.14
2016-07-02T09:57:12.631Z,71.43
2016-07-02T09:58:12.592Z,73.07
2016-07-02T09:59:12.490Z,72.39
2016-07-02T10:00:12.544Z,70.76
2016-07-02T10:01:12.639Z,71.91
2016-07-02T10:02:12.493Z,72.36
2016-07-02T10:03:12.494Z,72.36
2016-07-02T10:04:12.492Z,71.49
2016-07-02T10:05:12.492Z,72.2
2016-07-02T10:06:12.555Z,72.88
2016-07-02T10:07:12.618Z,72.49
2016-07-02T10:08:12.537Z,72.2
2016-07-02T10:09:12.495Z,72.88
2016-07-02T10:10:12.523Z,73.22
2016-07-02T10:11:12.625Z,72.65
2016-07-02T10:12:12.472Z,72.07
2016-07-02T10:13:12.500Z,72.26
2016-07-02T10:14:12.505Z,72.45
2016-07-02T10:15:12.685Z,73.51
2016-07-02T10:16:12.649Z,72.61
2016-07-02T10:17:12.629Z,73.38
2016-07-02T10:18:12.498Z,72.23
2016-07-02T10:19:12.613Z,73.86
2016-07-02T10:20:12.521Z,73.38
2016-07-02T10:21:12.608Z,72.8
2016-07-02T10:22:12.640Z,72.42
2016-07-02T10:23:12.565Z,71.42
2016-07-02T10:24:12.646Z,71.81
2016-07-02T10:25:12.726Z,72.67
2016-07-02T10:26:12.528Z,73.92
2016-07-02T10:27:12.639Z,73.44
2016-07-02T10:28:12.515Z,73.63
2016-07-02T10:29:12.511Z,73.98
2016-07-02T10:30:12.521Z,74.21
2016-07-02T10:31:12.609Z,74.46
2016-07-02T10:32:12.612Z,75.07
2016-07-02T10:33:12.499Z,74.79
2016-07-02T10:34:12.514Z,74.94
2016-07-02T10:35:12.744Z,74.37
2016-07-02T10:36:12.623Z,74.21
2016-07-02T10:37:12.421Z,74.21
2016-07-02T10:38:12.520Z,73.92
2016-07-02T10:39:12.507Z,73.92
2016-07-02T10:40:12.442Z,74.3
2016-07-02T10:41:12.528Z,74.88
2016-07-02T10:42:12.653Z,75.94
2016-07-02T10:43:12.679Z,75.37
2016-07-02T10:44:12.644Z,74.3
2016-07-02T10:45:12.590Z,75.65
2016-07-02T10:46:12.666Z,74.98
2016-07-02T10:47:12.644Z,75.17
2016-07-02T10:48:12.619Z,74.21
2016-07-02T10:49:13.258Z,73.73
2016-07-02T10:50:12.595Z,73.73
2016-07-02T10:51:12.662Z,74.5
2016-07-02T10:52:12.461Z,74.21
2016-07-02T10:53:12.630Z,73.35
2016-07-02T10:54:12.443Z,73.47
2016-07-02T10:55:12.653Z,73.57
2016-07-02T10:56:12.569Z,73.47
2016-07-02T10:57:12.673Z,74.76
2016-07-02T10:58:12.530Z,73.03
2016-07-02T10:59:12.707Z,73.03
2016-07-02T11:00:12.627Z,71.88
2016-07-02T11:01:12.533Z,72.78
2016-07-02T11:02:12.612Z,71.91
2016-07-02T11:03:12.508Z,70.37
2016-07-02T11:04:12.623Z,70.28
2016-07-02T11:05:12.637Z,69.6
2016-07-02T11:06:12.635Z,70.28
2016-07-02T11:07:12.657Z,70.98
2016-07-02T11:08:12.729Z,70.79
2016-07-02T11:09:12.647Z,70.5
2016-07-02T11:10:12.636Z,70.5
2016-07-02T11:11:12.639Z,71.12
2016-07-02T11:12:12.657Z,69.23
2016-07-02T11:13:12.677Z,67.68
2016-07-02T11:14:12.541Z,66.46
2016-07-02T11:15:12.519Z,65.5
2016-07-02T11:16:12.570Z,65.78
2016-07-02T11:17:12.685Z,65.34
2016-07-02T11:18:12.771Z,65.56
2016-07-02T11:19:12.759Z,63.73
2016-07-02T11:20:12.526Z,63.24
2016-07-02T11:21:12.548Z,61.12
2016-07-02T11:22:12.666Z,60.44
2016-07-02T11:23:12.655Z,59.48
2016-07-02T11:24:12.683Z,60.06
2016-07-02T11:25:12.544Z,59.48
2016-07-02T11:26:12.449Z,60.83
2016-07-02T11:27:12.670Z,59.58
2016-07-02T11:28:12.492Z,58.39
2016-07-02T11:29:12.666Z,60.41
2016-07-02T11:30:12.539Z,61.67
2016-07-02T11:31:12.692Z,61.77
2016-07-02T11:32:12.543Z,61.47
2016-07-02T11:33:12.841Z,60.71
2016-07-02T11:34:12.472Z,60.31
2016-07-02T11:35:12.564Z,60.31
2016-07-02T11:36:12.558Z,60.71
2016-07-02T11:37:12.718Z,60.99
2016-07-02T11:38:12.572Z,58.87
2016-07-02T11:39:12.794Z,60.31
2016-07-02T11:40:12.515Z,60.03
2016-07-02T11:41:12.723Z,56.46
2016-07-02T11:42:13.088Z,57.23
2016-07-02T11:43:12.698Z,57.52
2016-07-02T11:44:12.693Z,59.74
2016-07-02T11:45:12.718Z,58.87
2016-07-02T11:46:12.791Z,57.52
2016-07-02T11:47:12.503Z,55.88
2016-07-02T11:48:12.606Z,60.22
2016-07-02T11:49:12.732Z,60.03
2016-07-02T11:50:12.543Z,59.35
2016-07-02T11:51:12.583Z,59.74
2016-07-02T11:52:12.611Z,60.03
2016-07-02T11:53:12.621Z,58.97
2016-07-02T11:54:13.647Z,58.75
2016-07-02T11:55:12.644Z,57.97
2016-07-02T11:56:12.748Z,60.74
2016-07-02T11:57:12.568Z,59.2
2016-07-02T11:58:12.784Z,61.03
2016-07-02T11:59:12.752Z,61.22
2016-07-02T12:00:12.781Z,61.41
2016-07-02T12:01:12.627Z,62.06
2016-07-02T12:02:12.579Z,61
2016-07-02T12:03:12.768Z,59.45
2016-07-02T12:04:12.695Z,60.3
2016-07-02T12:05:12.843Z,62.12
2016-07-02T12:07:13.166Z,62.99
2016-07-02T12:08:12.609Z,62.99
2016-07-02T12:09:12.778Z,63.92
2016-07-02T12:10:12.819Z,64.69
2016-07-02T12:11:12.828Z,64.89
2016-07-02T12:12:12.558Z,62.96
2016-07-02T12:13:12.643Z,64.56
2016-07-02T12:14:12.654Z,64.18
2016-07-02T12:15:12.665Z,65.33
2016-07-02T12:16:12.634Z,68.29
2016-07-02T12:17:12.613Z,69.15
2016-07-02T12:18:12.788Z,67.51
2016-07-02T12:19:12.656Z,71.75
2016-07-02T12:20:12.636Z,71.91
2016-07-02T12:21:12.791Z,71.81
2016-07-02T12:22:12.653Z,72.77
2016-07-02T12:23:13.037Z,74.88
2016-07-02T12:24:12.840Z,74.88
2016-07-02T12:25:12.783Z,74.3
2016-07-02T12:26:12.782Z,74.88
2016-07-02T12:27:12.662Z,74.5
2016-07-02T12:28:12.672Z,74.4
2016-07-02T12:29:12.660Z,74.25
2016-07-02T12:30:12.755Z,75.11
2016-07-02T12:31:12.765Z,74.82
2016-07-02T12:32:12.668Z,75.21
2016-07-02T12:33:12.670Z,76.42
2016-07-02T12:34:12.680Z,76.52
2016-07-02T12:35:12.661Z,76.71
2016-07-02T12:36:12.662Z,76.61
2016-07-02T12:37:12.579Z,76.52
2016-07-02T12:38:12.669Z,76.42
2016-07-02T12:39:12.722Z,76.23
2016-07-02T12:40:12.826Z,76.61
2016-07-02T12:41:12.623Z,76.32
2016-07-02T12:42:12.651Z,77.15
2016-07-02T12:43:12.869Z,77.34
2016-07-02T12:44:12.703Z,77.44
2016-07-02T12:45:12.887Z,77.83
2016-07-02T12:46:12.771Z,78.3
2016-07-02T12:47:12.684Z,78.11
2016-07-02T12:48:12.693Z,78.98
2016-07-02T12:49:27.433Z,79.27
2016-07-02T12:50:12.671Z,79.36
2016-07-02T12:51:12.813Z,79.27
2016-07-02T12:52:12.725Z,79.03
2016-07-02T12:53:12.849Z,78.84
2016-07-02T12:54:12.808Z,78.88
2016-07-02T12:55:12.689Z,79.42
2016-07-02T12:56:12.650Z,80.28